Time;durP1;ratioP1;P1;durP2;ratioP2;P2;SDS_P1;SDS_P2;PMS_P1;PMS_P2;Temp;Humidity;BMP_temperature;BMP_pressure;BME280_temperature;BME280_humidity;BME280_pressure;Samples;Min_cycle;Max_cycle;Signal;HPM_P1;HPM_P2
2023/01/21 00:02:16;;;;;;;16.27;5.55;;;17.80;34.30;;;;;;5113486;27;20071;-63
2023/01/21 00:04:42;;;;;;;14.68;5.30;;;17.70;35.00;;;;;;5114802;27;20145;-64
2023/01/21 00:07:09;;;;;;;14.75;4.80;;;17.70;34.90;;;;;;5112238;27;20199;-64
2023/01/21 00:09:35;;;;;;;16.65;4.88;;;17.60;34.80;;;;;;5112425;27;20095;-62
2023/01/21 00:12:02;;;;;;;15.00;5.13;;;17.60;34.60;;;;;;5108916;27;20067;-62
2023/01/21 00:14:29;;;;;;;12.32;5.13;;;17.50;34.80;;;;;;5117177;27;20168;-62
2023/01/21 00:16:57;;;;;;;13.10;4.82;;;17.40;34.70;;;;;;5113393;27;20196;-62
2023/01/21 00:19:24;;;;;;;14.85;5.35;;;17.60;35.60;;;;;;5115588;27;20094;-64
2023/01/21 00:21:50;;;;;;;15.18;5.78;;;17.60;34.70;;;;;;5115095;27;20399;-62
2023/01/21 00:24:17;;;;;;;13.77;5.43;;;17.50;35.60;;;;;;5117661;27;20545;-62
2023/01/21 00:26:43;;;;;;;17.65;5.78;;;17.50;35.00;;;;;;5115003;27;20101;-63
2023/01/21 00:29:10;;;;;;;16.17;6.15;;;17.40;35.30;;;;;;5115417;27;20074;-61
2023/01/21 00:31:36;;;;;;;10.30;4.38;;;17.30;35.30;;;;;;5111966;27;20079;-62
2023/01/21 00:34:03;;;;;;;10.85;4.93;;;17.10;35.50;;;;;;5114910;27;20096;-63
2023/01/21 00:36:29;;;;;;;13.52;4.90;;;17.10;35.60;;;;;;5111873;27;20103;-64
2023/01/21 00:38:56;;;;;;;12.70;5.20;;;17.00;35.80;;;;;;5117337;27;20079;-63
2023/01/21 00:41:26;;;;;;;19.35;6.22;;;16.80;35.90;;;;;;5113658;27;20148;-63
2023/01/21 00:43:52;;;;;;;16.05;5.93;;;16.70;35.80;;;;;;5112144;27;20141;-62
2023/01/21 00:46:19;;;;;;;29.13;6.47;;;16.60;36.40;;;;;;5116702;27;20437;-62
2023/01/21 00:48:45;;;;;;;29.65;6.88;;;16.50;37.50;;;;;;5112379;27;20063;-64
2023/01/21 00:51:12;;;;;;;19.48;6.22;;;16.50;37.10;;;;;;5113089;27;20069;-65
2023/01/21 00:53:42;;;;;;;20.60;6.88;;;16.40;37.10;;;;;;5113304;27;20421;-62
2023/01/21 00:56:12;;;;;;;21.60;6.43;;;16.20;37.20;;;;;;5114729;27;20072;-62
2023/01/21 00:58:39;;;;;;;21.67;6.22;;;16.10;37.50;;;;;;5117767;27;20083;-63
2023/01/21 01:01:08;;;;;;;12.65;5.03;;;16.10;37.20;;;;;;5112328;27;20072;-62
2023/01/21 01:03:35;;;;;;;21.52;6.00;;;16.10;37.90;;;;;;5107677;27;21998;-63
2023/01/21 01:06:08;;;;;;;13.35;5.30;;;16.00;38.90;;;;;;5115008;27;20063;-63
2023/01/21 01:08:34;;;;;;;16.42;5.80;;;16.00;39.50;;;;;;5107015;28;20923;-64
2023/01/21 01:11:01;;;;;;;16.20;5.40;;;15.90;39.90;;;;;;5122963;27;20080;-62
2023/01/21 01:13:28;;;;;;;17.40;6.30;;;15.70;39.80;;;;;;5089715;28;20103;-64
2023/01/21 01:15:57;;;;;;;22.50;7.00;;;15.70;40.50;;;;;;5113775;27;20175;-62
2023/01/21 01:18:25;;;;;;;22.67;7.40;;;15.60;40.90;;;;;;5111716;27;20121;-62
2023/01/21 01:20:52;;;;;;;25.15;8.00;;;15.50;40.70;;;;;;5113592;27;20064;-64
2023/01/21 01:23:18;;;;;;;;;;;15.40;41.50;;;;;;5105706;28;20590;-62
2023/01/21 01:25:53;;;;;;;29.17;10.73;;;15.30;40.50;;;;;;5111046;27;20050;-62
2023/01/21 01:28:19;;;;;;;24.80;11.13;;;15.20;40.90;;;;;;5109716;27;20071;-64
2023/01/21 01:30:45;;;;;;;;;;;15.10;41.40;;;;;;5110246;27;20067;-62
2023/01/21 01:33:12;;;;;;;24.00;8.32;;;15.00;41.50;;;;;;5110138;27;20315;-61
2023/01/21 01:35:38;;;;;;;;;;;15.00;42.30;;;;;;5111639;27;20106;-64
2023/01/21 01:38:07;;;;;;;27.58;8.15;;;14.90;42.40;;;;;;5110043;28;20454;-64
2023/01/21 01:40:34;;;;;;;25.65;9.23;;;14.80;42.90;;;;;;5109767;27;20068;-63
2023/01/21 01:43:01;;;;;;;28.02;8.40;;;14.70;43.80;;;;;;5115328;27;20088;-63
2023/01/21 01:45:27;;;;;;;37.63;10.10;;;14.70;44.00;;;;;;5114503;27;20067;-63
2023/01/21 01:47:58;;;;;;;;;;;14.50;44.30;;;;;;5113228;27;20126;-64
2023/01/21 01:50:29;;;;;;;42.33;9.45;;;14.40;45.20;;;;;;5112614;28;20405;-64
2023/01/21 01:52:58;;;;;;;31.27;8.50;;;14.30;45.70;;;;;;5112050;27;20438;-62
2023/01/21 01:55:24;;;;;;;32.67;9.63;;;14.20;46.30;;;;;;5113925;28;20146;-62
2023/01/21 01:57:53;;;;;;;36.70;9.75;;;14.10;47.10;;;;;;5113754;28;20088;-62
2023/01/21 02:00:20;;;;;;;37.70;9.65;;;14.00;46.70;;;;;;5092659;28;20414;-64
2023/01/21 02:03:43;;;;;;;36.58;8.93;;;14.00;47.00;;;;;;5114182;28;20069;-63
2023/01/21 02:05:35;;;;;;;39.40;9.53;;;13.90;47.30;;;;;;5114834;28;20073;-62
2023/01/21 02:08:02;;;;;;;27.15;8.63;;;13.90;47.90;;;;;;5114359;28;20347;-62
2023/01/21 02:10:30;;;;;;;44.20;8.90;;;13.80;48.20;;;;;;5114086;28;20107;-62
2023/01/21 02:12:57;;;;;;;36.03;8.43;;;13.70;48.20;;;;;;5090332;28;20439;-62
2023/01/21 02:15:30;;;;;;;24.60;8.05;;;13.60;48.90;;;;;;5108887;28;20460;-62
2023/01/21 02:18:29;;;;;;;30.95;8.95;;;13.50;49.60;;;;;;5113091;28;20076;-63
2023/01/21 02:21:32;;;;;;;25.05;8.32;;;13.40;49.60;;;;;;5115640;27;20069;-63
2023/01/21 02:24:23;;;;;;;38.22;8.90;;;13.40;49.50;;;;;;5109578;27;20498;-63
2023/01/21 02:26:49;;;;;;;37.30;9.45;;;13.30;48.70;;;;;;5113589;27;20086;-63
2023/01/21 02:29:36;;;;;;;44.63;9.32;;;13.30;49.00;;;;;;5112603;27;20073;-62
2023/01/21 02:32:02;;;;;;;;;;;13.20;49.00;;;;;;5116600;27;20076;-63
2023/01/21 02:34:58;;;;;;;39.53;9.95;;;13.20;49.60;;;;;;5118271;27;19974;-63
2023/01/21 02:37:39;;;;;;;37.30;10.52;;;13.20;49.90;;;;;;5110005;27;20161;-63
2023/01/21 02:40:11;;;;;;;38.00;11.43;;;13.10;50.10;;;;;;5112457;27;20457;-63
2023/01/21 02:42:49;;;;;;;46.80;12.35;;;13.10;50.40;;;;;;5119169;27;20086;-64
2023/01/21 02:45:32;;;;;;;54.10;18.35;;;13.00;50.60;;;;;;5117415;27;20066;-65
2023/01/21 02:48:05;;;;;;;74.03;20.45;;;13.00;51.40;;;;;;5114398;27;20435;-64
2023/01/21 02:50:39;;;;;;;68.15;21.45;;;12.90;52.00;;;;;;5117768;27;20113;-62
2023/01/21 02:53:05;;;;;;;64.90;20.08;;;12.90;52.30;;;;;;5116745;27;20150;-63
2023/01/21 02:55:34;;;;;;;;;;;12.80;52.80;;;;;;5114594;27;20478;-63
2023/01/21 02:58:14;;;;;;;51.38;14.50;;;12.70;52.60;;;;;;5095366;27;19954;-63
2023/01/21 03:00:59;;;;;;;54.28;15.13;;;12.70;51.50;;;;;;5115411;27;20164;-65
2023/01/21 03:03:47;;;;;;;47.20;14.73;;;12.60;51.50;;;;;;5118737;27;21684;-62
2023/01/21 03:06:34;;;;;;;52.22;16.00;;;12.60;52.20;;;;;;5114664;27;20070;-64
2023/01/21 03:09:29;;;;;;;41.83;13.18;;;12.60;53.10;;;;;;5118107;27;20069;-64
2023/01/21 03:12:12;;;;;;;45.55;16.10;;;12.60;53.00;;;;;;5115068;27;20501;-64
2023/01/21 03:17:47;;;;;;;55.40;17.17;;;12.40;53.10;;;;;;5112234;27;20077;-63
2023/01/21 03:20:49;;;;;;;59.38;18.55;;;12.40;53.70;;;;;;5116099;27;20090;-64
2023/01/21 03:23:24;;;;;;;46.33;16.98;;;12.30;54.00;;;;;;5112691;27;20546;-63
2023/01/21 03:25:51;;;;;;;63.13;18.35;;;12.30;55.50;;;;;;5114730;27;20076;-64
2023/01/21 03:28:23;;;;;;;69.90;18.17;;;12.30;54.90;;;;;;5111841;27;20551;-61
2023/01/21 03:30:59;;;;;;;65.03;17.98;;;12.30;55.10;;;;;;5114310;27;20085;-62
2023/01/21 03:33:30;;;;;;;84.15;17.23;;;12.20;55.40;;;;;;5115284;27;20149;-62
2023/01/21 03:35:59;;;;;;;71.18;18.65;;;12.20;55.40;;;;;;5125887;27;20081;-63
2023/01/21 03:38:36;;;;;;;65.93;15.98;;;12.20;56.20;;;;;;5116687;27;20120;-63
2023/01/21 03:41:23;;;;;;;62.58;18.70;;;12.20;56.40;;;;;;5117276;27;20518;-63
2023/01/21 03:43:50;;;;;;;58.77;17.03;;;12.10;55.40;;;;;;5092061;28;20078;-62
2023/01/21 03:46:23;;;;;;;76.05;16.42;;;12.00;55.60;;;;;;5116924;27;20065;-62
2023/01/21 03:49:03;;;;;;;57.47;17.38;;;12.00;56.30;;;;;;5112866;27;20101;-62
2023/01/21 03:51:38;;;;;;;50.20;16.33;;;11.90;56.00;;;;;;5112818;27;20077;-62
2023/01/21 03:54:04;;;;;;;72.10;16.25;;;12.00;56.60;;;;;;5114911;27;20069;-62
2023/01/21 03:56:31;;;;;;;68.28;22.75;;;12.00;57.90;;;;;;5115971;27;20522;-62
2023/01/21 03:58:57;;;;;;;;;;;11.90;56.50;;;;;;5113362;27;20087;-64
2023/01/21 04:01:23;;;;;;;90.75;27.02;;;11.90;56.10;;;;;;5116808;27;19958;-63
2023/01/21 04:03:49;;;;;;;;;;;11.90;56.70;;;;;;5114974;27;20071;-65
2023/01/21 04:06:21;;;;;;;86.72;24.45;;;11.70;56.50;;;;;;5111789;27;20166;-63
2023/01/21 04:08:48;;;;;;;69.57;22.98;;;11.70;57.00;;;;;;5117578;27;20080;-63
2023/01/21 04:11:15;;;;;;;87.55;23.23;;;11.60;57.30;;;;;;5112229;27;20081;-65
2023/01/21 04:13:42;;;;;;;74.97;21.30;;;11.60;56.40;;;;;;5114003;27;20069;-65
2023/01/21 04:16:09;;;;;;;79.28;23.38;;;11.60;54.60;;;;;;5090167;28;20585;-63
2023/01/21 04:18:35;;;;;;;66.45;21.73;;;11.40;55.80;;;;;;5093219;27;20461;-65
2023/01/21 04:21:02;;;;;;;72.28;23.65;;;11.50;56.00;;;;;;5114018;27;20085;-64
2023/01/21 04:23:28;;;;;;;;;;;11.50;56.40;;;;;;5091109;27;20080;-63
2023/01/21 04:25:54;;;;;;;77.63;24.00;;;11.50;56.10;;;;;;5116227;27;20438;-66
2023/01/21 04:28:20;;;;;;;;;;;11.50;56.70;;;;;;5115500;27;20085;-64
2023/01/21 04:30:47;;;;;;;75.15;24.05;;;11.40;57.90;;;;;;5116661;27;19954;-64
2023/01/21 04:33:14;;;;;;;77.03;24.98;;;11.40;58.00;;;;;;5115532;27;20458;-63
2023/01/21 04:35:40;;;;;;;74.05;22.98;;;11.30;57.90;;;;;;5113022;27;20511;-62
2023/01/21 04:38:06;;;;;;;;;;;11.30;57.80;;;;;;5111635;27;20067;-64
2023/01/21 04:40:33;;;;;;;75.43;23.02;;;11.30;58.50;;;;;;5112513;27;19959;-63
2023/01/21 04:42:59;;;;;;;;;;;11.20;57.90;;;;;;5114617;27;20109;-64
2023/01/21 04:45:25;;;;;;;76.22;26.38;;;11.00;58.50;;;;;;5113309;27;19990;-63
2023/01/21 04:47:51;;;;;;;;;;;11.00;58.60;;;;;;5111418;27;20124;-64
2023/01/21 04:50:18;;;;;;;87.78;29.05;;;11.00;58.60;;;;;;5116358;27;20700;-63
2023/01/21 04:52:44;;;;;;;86.05;28.52;;;11.10;58.90;;;;;;5119411;27;20105;-63
2023/01/21 04:55:10;;;;;;;;;;;11.10;58.80;;;;;;5095564;28;20070;-64
2023/01/21 04:57:37;;;;;;;91.53;29.38;;;11.20;58.90;;;;;;5111044;27;20495;-63
2023/01/21 05:00:06;;;;;;;106.50;30.40;;;11.20;59.00;;;;;;5113629;27;20117;-60
2023/01/21 05:02:33;;;;;;;93.82;29.40;;;11.10;59.30;;;;;;5116756;27;20062;-63
2023/01/21 05:05:00;;;;;;;97.45;30.95;;;11.10;59.70;;;;;;5088413;28;20122;-62
2023/01/21 05:07:26;;;;;;;;;;;11.10;59.40;;;;;;5111647;27;20068;-64
2023/01/21 05:09:52;;;;;;;96.78;27.38;;;11.00;59.50;;;;;;5111086;27;20472;-64
2023/01/21 05:12:18;;;;;;;;;;;10.90;60.00;;;;;;5115934;27;20073;-62
2023/01/21 05:14:45;;;;;;;104.60;27.08;;;10.80;59.90;;;;;;5112664;27;19954;-62
2023/01/21 05:17:11;;;;;;;103.47;28.58;;;10.80;59.40;;;;;;5091001;27;20078;-64
2023/01/21 05:19:40;;;;;;;73.30;27.02;;;10.70;59.10;;;;;;5112617;27;20550;-64
2023/01/21 05:22:06;;;;;;;;;;;10.80;59.60;;;;;;5116525;27;20117;-62
2023/01/21 05:24:32;;;;;;;82.47;30.73;;;10.70;59.60;;;;;;5109545;28;20047;-63
2023/01/21 05:26:59;;;;;;;;;;;10.70;59.90;;;;;;5110943;27;20482;-63
2023/01/21 05:29:25;;;;;;;83.13;29.90;;;10.60;60.50;;;;;;5116816;27;19958;-63
2023/01/21 05:31:51;;;;;;;;;;;10.50;61.40;;;;;;5110872;27;20089;-64
2023/01/21 05:34:18;;;;;;;72.00;28.08;;;10.50;60.10;;;;;;5116171;27;20380;-62
2023/01/21 05:36:44;;;;;;;;;;;10.60;60.70;;;;;;5117351;27;20164;-63
2023/01/21 05:39:10;;;;;;;75.88;26.98;;;10.60;60.00;;;;;;5112991;27;20610;-66
2023/01/21 05:41:36;;;;;;;;;;;10.60;61.00;;;;;;5112793;27;20069;-66
2023/01/21 05:44:03;;;;;;;73.90;25.98;;;11.70;59.50;;;;;;5113943;27;19954;-66
2023/01/21 05:46:29;;;;;;;83.72;28.88;;;12.20;58.10;;;;;;5111496;27;20075;-66
2023/01/21 05:48:55;;;;;;;;;;;12.40;57.40;;;;;;5115538;27;20450;-63
2023/01/21 05:51:21;;;;;;;72.03;25.52;;;12.50;56.70;;;;;;5108949;28;19950;-66
2023/01/21 05:53:47;;;;;;;;;;;12.50;55.80;;;;;;5109339;27;20073;-65
2023/01/21 05:56:14;;;;;;;63.95;22.40;;;12.70;55.60;;;;;;5104923;28;19958;-63
2023/01/21 05:58:40;;;;;;;63.75;23.85;;;13.00;53.40;;;;;;5109714;28;20086;-63
2023/01/21 06:01:06;;;;;;;;;;;12.80;52.50;;;;;;5112633;28;20070;-66
2023/01/21 06:03:34;;;;;;;44.50;19.05;;;12.80;51.90;;;;;;5117679;28;19953;-65
2023/01/21 06:06:00;;;;;;;47.78;15.75;;;12.60;52.20;;;;;;5113197;28;20476;-63
2023/01/21 06:08:27;;;;;;;52.03;16.50;;;12.50;52.80;;;;;;5110158;28;20096;-63
2023/01/21 06:10:55;;;;;;;;;;;12.40;53.50;;;;;;5112804;28;20107;-64
2023/01/21 06:13:22;;;;;;;44.83;13.60;;;12.50;52.70;;;;;;5115970;28;20237;-64
2023/01/21 06:15:49;;;;;;;34.53;13.80;;;12.40;52.10;;;;;;5111623;28;20109;-66
2023/01/21 06:18:15;;;;;;;50.78;13.80;;;12.40;51.80;;;;;;5113036;28;20070;-65
2023/01/21 06:20:41;;;;;;;;;;;12.30;52.00;;;;;;5112039;28;20438;-64
2023/01/21 06:23:08;;;;;;;44.55;15.75;;;12.10;53.30;;;;;;5109609;28;19961;-65
2023/01/21 06:25:34;;;;;;;44.20;15.32;;;12.00;52.90;;;;;;5110619;28;20078;-66
2023/01/21 06:28:00;;;;;;;;;;;12.30;51.80;;;;;;5113212;28;20081;-64
2023/01/21 06:30:27;;;;;;;34.38;12.85;;;12.50;50.00;;;;;;5113510;28;19959;-64
2023/01/21 06:32:53;;;;;;;41.67;11.55;;;12.60;50.10;;;;;;5090112;28;20066;-64
2023/01/21 06:35:19;;;;;;;;;;;12.60;48.70;;;;;;5113069;28;20069;-64
2023/01/21 06:37:46;;;;;;;25.55;8.00;;;12.50;48.80;;;;;;5114763;28;19954;-66
2023/01/21 06:40:14;;;;;;;34.75;12.70;;;12.60;49.50;;;;;;5110741;28;20098;-65
2023/01/21 06:42:40;;;;;;;45.97;11.07;;;12.50;48.40;;;;;;5109284;28;20514;-64
2023/01/21 06:45:07;;;;;;;25.80;8.13;;;12.30;48.50;;;;;;5109897;28;20131;-64
2023/01/21 06:47:34;;;;;;;24.95;6.78;;;12.50;49.10;;;;;;5108490;28;20156;-67
2023/01/21 06:50:00;;;;;;;;;;;12.40;47.50;;;;;;5090014;28;20070;-65
2023/01/21 06:52:26;;;;;;;28.42;10.43;;;12.40;47.40;;;;;;5110046;28;19990;-66
2023/01/21 06:54:53;;;;;;;30.65;9.82;;;12.30;47.80;;;;;;5112559;28;20117;-63
2023/01/21 06:57:19;;;;;;;31.58;7.43;;;12.30;48.10;;;;;;5110904;28;20082;-64
2023/01/21 06:59:48;;;;;;;;;;;12.10;49.00;;;;;;5112588;28;20088;-64
2023/01/21 07:02:18;;;;;;;21.02;5.78;;;12.10;48.70;;;;;;5113957;28;19954;-66
2023/01/21 07:04:44;;;;;;;25.33;6.57;;;12.10;48.80;;;;;;5110535;27;20126;-64
2023/01/21 07:07:11;;;;;;;25.73;6.47;;;11.90;49.10;;;;;;5112612;27;20062;-65
2023/01/21 07:09:37;;;;;;;22.40;6.32;;;11.70;49.50;;;;;;5112914;27;20082;-66
2023/01/21 07:12:03;;;;;;;;;;;11.60;50.00;;;;;;5114255;27;20069;-64
2023/01/21 07:14:29;;;;;;;22.33;6.28;;;11.40;49.50;;;;;;5119542;27;19978;-64
2023/01/21 07:16:55;;;;;;;;;;;11.50;49.90;;;;;;5113145;27;20163;-64
2023/01/21 07:19:22;;;;;;;24.48;6.40;;;11.50;50.20;;;;;;5118271;27;19974;-65
2023/01/21 07:21:48;;;;;;;;;;;11.40;49.60;;;;;;5117543;27;20127;-64
2023/01/21 07:24:15;;;;;;;27.33;6.95;;;11.40;50.00;;;;;;5112117;27;19961;-62
2023/01/21 07:26:42;;;;;;;28.83;7.05;;;11.40;49.00;;;;;;5116359;27;20098;-64
2023/01/21 07:29:08;;;;;;;25.90;9.68;;;11.40;49.50;;;;;;5118095;27;20115;-65
2023/01/21 07:31:37;;;;;;;40.35;10.10;;;11.40;49.30;;;;;;5114783;27;20960;-65
2023/01/21 07:34:04;;;;;;;30.30;8.18;;;11.40;49.10;;;;;;5093861;28;20073;-65
2023/01/21 07:36:30;;;;;;;;;;;11.30;49.50;;;;;;5117355;27;20146;-63
2023/01/21 07:38:57;;;;;;;25.40;6.13;;;11.30;49.60;;;;;;5113071;27;19970;-64
2023/01/21 07:41:24;;;;;;;30.00;6.18;;;11.20;49.70;;;;;;5114661;27;20070;-66
2023/01/21 07:43:50;;;;;;;17.95;5.20;;;11.10;50.20;;;;;;5112987;27;20066;-63
2023/01/21 07:46:19;;;;;;;27.42;5.90;;;11.10;50.10;;;;;;5113814;27;20070;-66
2023/01/21 07:48:49;;;;;;;28.02;6.70;;;11.00;50.60;;;;;;5091633;28;20071;-65
2023/01/21 07:51:19;;;;;;;32.25;6.82;;;10.90;50.90;;;;;;5091621;28;20160;-65
2023/01/21 07:53:46;;;;;;;33.97;7.18;;;10.80;51.00;;;;;;5115268;27;20070;-66
2023/01/21 07:56:17;;;;;;;22.70;6.43;;;10.70;50.70;;;;;;5113886;27;20076;-65
2023/01/21 07:58:45;;;;;;;35.60;7.22;;;10.70;51.30;;;;;;5111213;27;20090;-64
2023/01/21 08:01:14;;;;;;;29.95;6.82;;;10.70;52.10;;;;;;5113459;27;20078;-64
2023/01/21 08:03:41;;;;;;;34.40;6.97;;;10.70;52.40;;;;;;5116890;27;20132;-64
2023/01/21 08:06:07;;;;;;;;;;;10.70;52.90;;;;;;5116094;27;20507;-64
2023/01/21 08:08:34;;;;;;;25.85;6.30;;;10.60;53.10;;;;;;5112112;27;20172;-67
2023/01/21 08:11:00;;;;;;;28.85;7.45;;;10.50;52.20;;;;;;5117863;27;20093;-66
2023/01/21 08:13:26;;;;;;;;;;;10.20;52.90;;;;;;5113900;27;20108;-63
2023/01/21 08:15:55;;;;;;;25.08;6.63;;;10.20;51.80;;;;;;5091933;28;19978;-64
2023/01/21 08:18:23;;;;;;;21.60;6.30;;;10.20;51.10;;;;;;5113576;27;20090;-63
2023/01/21 08:20:59;;;;;;;18.65;6.25;;;10.30;50.80;;;;;;5109028;27;20083;-64
2023/01/21 08:23:26;;;;;;;37.30;14.38;;;10.30;50.70;;;;;;5090779;28;20069;-64
2023/01/21 08:25:53;;;;;;;35.08;14.57;;;10.30;50.70;;;;;;5092340;27;20112;-64
2023/01/21 08:28:20;;;;;;;24.45;8.65;;;10.30;51.60;;;;;;5113561;27;20073;-64
2023/01/21 08:30:47;;;;;;;29.27;6.63;;;10.30;52.50;;;;;;5110192;27;20102;-64
2023/01/21 08:33:13;;;;;;;;;;;10.20;52.10;;;;;;5114206;27;20167;-65
2023/01/21 08:35:39;;;;;;;35.92;14.13;;;10.10;52.60;;;;;;5114885;27;19961;-66
2023/01/21 08:38:05;;;;;;;;;;;10.10;53.90;;;;;;5114705;27;20066;-63
2023/01/21 08:40:32;;;;;;;34.92;13.93;;;10.00;53.10;;;;;;5111361;27;20056;-63
2023/01/21 08:42:59;;;;;;;;;;;10.10;53.60;;;;;;5113737;27;20077;-65
2023/01/21 08:45:26;;;;;;;50.88;15.55;;;10.00;53.40;;;;;;5113003;27;19961;-65
2023/01/21 08:47:52;;;;;;;47.13;16.98;;;9.90;53.60;;;;;;5108490;28;20094;-64
2023/01/21 08:50:19;;;;;;;47.25;17.15;;;9.90;53.80;;;;;;5120078;27;20062;-64
2023/01/21 08:52:53;;;;;;;51.40;17.65;;;9.80;54.30;;;;;;5112934;27;20097;-65
2023/01/21 08:55:21;;;;;;;43.90;18.33;;;9.80;55.20;;;;;;5107910;28;20075;-64
2023/01/21 08:57:50;;;;;;;51.92;19.52;;;9.70;54.90;;;;;;5112044;27;20058;-63
2023/01/21 09:00:18;;;;;;;54.85;21.23;;;9.60;55.40;;;;;;5112816;27;20084;-66
2023/01/21 09:02:45;;;;;;;61.25;21.00;;;9.60;55.70;;;;;;5114310;27;20144;-64
2023/01/21 09:05:11;;;;;;;49.38;20.45;;;9.60;55.40;;;;;;5114786;27;20071;-65
2023/01/21 09:07:37;;;;;;;;;;;9.60;55.40;;;;;;5113504;27;20074;-65
2023/01/21 09:10:05;;;;;;;45.67;20.25;;;9.60;55.30;;;;;;5111307;27;19963;-65
2023/01/21 09:12:32;;;;;;;47.75;21.02;;;9.60;55.30;;;;;;5115972;27;20075;-65
2023/01/21 09:14:58;;;;;;;64.53;20.10;;;9.50;55.40;;;;;;5113010;27;20101;-63
2023/01/21 09:17:24;;;;;;;;;;;9.50;56.80;;;;;;5114652;27;20136;-63
2023/01/21 09:19:51;;;;;;;46.10;19.48;;;9.50;56.80;;;;;;5112526;27;19979;-63
2023/01/21 09:22:17;;;;;;;;;;;9.50;55.80;;;;;;5113496;27;20081;-64
2023/01/21 09:24:43;;;;;;;44.83;20.10;;;9.40;56.10;;;;;;5113548;27;19954;-64
2023/01/21 09:27:10;;;;;;;39.35;18.90;;;9.20;55.70;;;;;;5113163;27;20594;-65
2023/01/21 09:29:36;;;;;;;41.20;17.45;;;9.10;55.80;;;;;;5111264;27;20085;-66
2023/01/21 09:32:04;;;;;;;35.28;15.82;;;9.10;55.60;;;;;;5113325;27;20079;-65
2023/01/21 09:34:30;;;;;;;40.88;15.80;;;9.10;56.10;;;;;;5107393;27;20067;-64
2023/01/21 09:36:57;;;;;;;36.53;15.75;;;9.10;56.00;;;;;;5108804;28;20069;-64
2023/01/21 09:39:23;;;;;;;37.45;15.82;;;9.20;55.70;;;;;;5113813;27;20685;-65
2023/01/21 09:41:53;;;;;;;38.80;15.95;;;9.20;56.10;;;;;;5112508;27;20067;-65
2023/01/21 09:44:31;;;;;;;33.90;16.38;;;9.00;56.60;;;;;;5113904;27;20090;-64
2023/01/21 09:47:23;;;;;;;37.65;15.93;;;9.00;57.20;;;;;;5109759;27;20082;-65
2023/01/21 09:49:52;;;;;;;35.20;15.52;;;9.00;56.80;;;;;;5109539;27;20192;-62
2023/01/21 09:52:30;;;;;;;43.42;15.10;;;9.10;56.30;;;;;;5111670;28;20086;-65
2023/01/21 09:54:57;;;;;;;42.95;16.42;;;9.20;57.30;;;;;;5110354;28;20135;-61
2023/01/21 09:57:33;;;;;;;48.38;15.75;;;9.20;56.80;;;;;;5108868;28;20131;-63
2023/01/21 10:00:04;;;;;;;41.58;16.85;;;9.20;56.80;;;;;;5108478;28;20145;-65
2023/01/21 10:02:51;;;;;;;37.83;16.77;;;9.20;57.20;;;;;;5109131;28;20071;-64
2023/01/21 10:05:24;;;;;;;51.88;18.73;;;9.20;58.10;;;;;;5101488;28;20133;-62
2023/01/21 10:08:10;;;;;;;48.50;16.85;;;9.10;58.40;;;;;;5109142;28;20070;-64
2023/01/21 10:11:11;;;;;;;37.25;15.38;;;9.10;58.20;;;;;;5111995;28;20158;-63
2023/01/21 10:13:55;;;;;;;35.03;15.13;;;9.10;57.70;;;;;;5109975;28;20070;-64
2023/01/21 10:16:38;;;;;;;37.20;15.02;;;9.10;57.10;;;;;;5113956;28;20113;-64
2023/01/21 10:19:10;;;;;;;33.47;13.73;;;9.00;58.20;;;;;;5114805;28;20106;-64
2023/01/21 10:22:03;;;;;;;31.55;14.05;;;8.90;57.60;;;;;;5112266;28;20158;-65
2023/01/21 10:24:35;;;;;;;35.33;14.40;;;8.80;58.00;;;;;;5113476;28;20397;-63
2023/01/21 10:27:02;;;;;;;33.67;14.00;;;8.80;58.70;;;;;;5090257;28;20058;-64
2023/01/21 10:29:28;;;;;;;;;;;8.80;58.80;;;;;;5112265;28;20083;-65
2023/01/21 10:32:06;;;;;;;29.25;13.18;;;8.80;58.40;;;;;;5094161;28;19961;-65
2023/01/21 10:34:38;;;;;;;33.53;14.05;;;8.80;58.40;;;;;;5111629;28;20144;-66
2023/01/21 10:37:32;;;;;;;31.80;13.45;;;8.80;58.70;;;;;;5108372;28;20086;-65
2023/01/21 10:40:41;;;;;;;33.95;14.10;;;8.80;59.00;;;;;;5114564;27;20179;-63
2023/01/21 10:43:28;;;;;;;32.05;14.32;;;8.80;59.00;;;;;;5114177;27;20477;-64
2023/01/21 10:46:15;;;;;;;36.03;13.38;;;8.70;59.20;;;;;;5116936;27;20139;-64
2023/01/21 10:49:16;;;;;;;35.78;14.20;;;8.70;59.50;;;;;;5119153;27;20098;-63
2023/01/21 10:52:00;;;;;;;41.95;13.82;;;8.70;60.50;;;;;;5114838;27;20093;-63
2023/01/21 10:54:53;;;;;;;38.75;13.27;;;8.70;60.80;;;;;;5116229;27;20146;-65
2023/01/21 10:57:48;;;;;;;32.05;13.27;;;8.70;60.20;;;;;;5116018;27;20178;-64
2023/01/21 11:00:23;;;;;;;43.45;13.18;;;8.70;59.70;;;;;;5115297;27;20130;-63
2023/01/21 11:02:55;;;;;;;29.90;13.57;;;8.60;59.50;;;;;;5114823;27;20503;-62
2023/01/21 11:05:24;;;;;;;38.55;14.18;;;8.60;59.90;;;;;;5116144;27;20461;-63
2023/01/21 11:07:50;;;;;;;36.22;15.00;;;8.60;59.70;;;;;;5117718;27;20086;-62
2023/01/21 11:10:23;;;;;;;35.47;14.25;;;8.50;59.90;;;;;;5113784;27;20584;-64
2023/01/21 11:12:50;;;;;;;41.17;14.93;;;8.40;61.80;;;;;;5110856;27;20075;-63
2023/01/21 11:15:19;;;;;;;40.03;15.45;;;8.30;62.70;;;;;;5119186;27;20145;-64
2023/01/21 11:17:48;;;;;;;42.03;16.10;;;8.40;63.40;;;;;;5115426;27;20066;-62
2023/01/21 11:20:17;;;;;;;42.13;14.60;;;8.40;62.20;;;;;;5116331;27;20571;-63
2023/01/21 11:22:45;;;;;;;35.13;14.18;;;8.30;61.20;;;;;;5115877;27;20063;-65
2023/01/21 11:25:33;;;;;;;44.25;16.20;;;8.30;62.10;;;;;;5111058;28;20078;-63
2023/01/21 11:28:00;;;;;;;42.50;14.57;;;8.30;62.00;;;;;;5112073;27;20096;-65
2023/01/21 11:30:37;;;;;;;32.92;13.98;;;8.30;61.80;;;;;;5118054;27;20440;-64
2023/01/21 11:33:20;;;;;;;42.47;14.73;;;8.30;62.00;;;;;;5114805;27;20483;-63
2023/01/21 11:35:47;;;;;;;40.53;14.77;;;8.30;61.80;;;;;;5118046;27;20079;-64
2023/01/21 11:38:35;;;;;;;38.20;14.10;;;8.30;62.60;;;;;;5115385;27;20436;-62
2023/01/21 11:41:14;;;;;;;37.05;14.10;;;8.20;64.10;;;;;;5111691;27;20074;-63
2023/01/21 11:43:54;;;;;;;45.30;14.90;;;8.10;63.10;;;;;;5113098;27;20075;-64
2023/01/21 11:46:25;;;;;;;39.40;14.65;;;8.20;63.20;;;;;;5116625;27;20074;-65
2023/01/21 11:49:14;;;;;;;35.00;14.07;;;8.20;64.30;;;;;;5113740;27;20075;-64
2023/01/21 11:51:44;;;;;;;38.40;14.55;;;8.10;63.50;;;;;;5091546;27;20091;-64
2023/01/21 11:54:19;;;;;;;36.80;14.43;;;8.20;63.60;;;;;;5118857;27;20123;-63
2023/01/21 11:56:57;;;;;;;29.30;14.07;;;8.10;63.60;;;;;;5114297;27;20086;-65
2023/01/21 11:59:33;;;;;;;38.50;15.77;;;8.10;64.60;;;;;;5115268;27;20079;-65
2023/01/21 12:02:25;;;;;;;34.70;14.68;;;8.00;63.70;;;;;;5112145;27;20077;-64
2023/01/21 12:05:41;;;;;;;39.58;15.15;;;8.00;63.40;;;;;;5112235;27;20082;-63
2023/01/21 12:08:30;;;;;;;43.05;15.45;;;8.00;64.50;;;;;;5043553;28;20167;-63
2023/01/21 12:11:02;;;;;;;40.38;15.70;;;8.00;64.60;;;;;;5038295;28;20076;-64
2023/01/21 12:14:06;;;;;;;45.72;17.67;;;8.00;64.10;;;;;;5039615;28;20534;-63
2023/01/21 12:16:36;;;;;;;44.60;17.20;;;8.00;64.00;;;;;;5037195;28;20213;-65
2023/01/21 12:19:57;;;;;;;44.05;18.05;;;7.90;63.60;;;;;;5033600;28;20093;-64
2023/01/21 12:22:38;;;;;;;52.30;19.58;;;8.00;63.90;;;;;;5024187;28;20160;-62
2023/01/21 12:25:20;;;;;;;42.33;19.02;;;7.90;63.50;;;;;;5044486;28;20076;-65
2023/01/21 12:28:06;;;;;;;43.47;19.00;;;7.90;63.70;;;;;;5040834;28;20648;-63
2023/01/21 12:30:55;;;;;;;49.33;19.92;;;7.80;64.50;;;;;;5042870;28;20072;-63
2023/01/21 12:33:30;;;;;;;48.40;19.38;;;7.80;64.30;;;;;;5038735;28;20131;-64
2023/01/21 12:36:17;;;;;;;37.55;18.92;;;7.80;64.80;;;;;;5039222;28;20121;-63
2023/01/21 12:39:06;;;;;;;56.10;20.15;;;7.80;66.30;;;;;;5041788;28;20097;-64
2023/01/21 12:41:34;;;;;;;44.92;19.05;;;7.80;66.20;;;;;;5039464;28;20557;-64
2023/01/21 12:44:32;;;;;;;41.42;19.23;;;7.70;64.60;;;;;;5066219;27;20162;-63
2023/01/21 12:47:11;;;;;;;38.95;19.58;;;7.60;64.50;;;;;;5113980;27;20086;-63
2023/01/21 12:49:58;;;;;;;47.03;20.50;;;7.50;64.40;;;;;;5111150;27;20083;-63
2023/01/21 12:52:39;;;;;;;45.00;19.67;;;7.60;64.50;;;;;;5114652;27;20102;-65
2023/01/21 12:55:19;;;;;;;46.63;20.50;;;7.60;64.60;;;;;;5115136;27;20169;-65
2023/01/21 12:58:13;;;;;;;46.30;19.38;;;7.60;64.70;;;;;;5116989;27;20107;-64
2023/01/21 13:00:45;;;;;;;43.47;17.95;;;7.50;64.30;;;;;;5102003;27;20092;-65
2023/01/21 13:03:17;;;;;;;42.67;17.60;;;7.40;64.70;;;;;;5111038;27;21960;-64
2023/01/21 13:05:56;;;;;;;38.45;15.90;;;7.10;64.60;;;;;;5113114;27;20082;-64
2023/01/21 13:08:38;;;;;;;33.40;15.18;;;7.10;64.40;;;;;;5111925;27;20057;-64
2023/01/21 13:11:37;;;;;;;28.30;14.30;;;7.20;64.80;;;;;;5111136;27;20073;-64
2023/01/21 13:14:07;;;;;;;24.73;12.05;;;7.30;65.10;;;;;;5106311;27;20073;-62